.
WxDataArchive / Data Records for 2007-06-10
2007-06-09 June 2007 2007-06-11

Data Records for Sunday, 10 June 2007

Time	Temp	Chill	HIndex	Humid	Dewpt	 Wind 	HiWind	WindDir	Rain 	Barom 
-----	----	-----	------	-----	-----	------	------	-------	-----	----- 
00:00	56.7	56.7	56.7	69	46.6	0	0	---	0.00	30.022 
00:05	56.5	56.5	56.5	71	47.2	0	0	---	0.00	30.019 
00:10	56.3	56.3	56.3	71	47.0	0	0	---	0.00	30.017 
00:15	56.2	56.2	56.2	70	46.5	0	1	135	0.00	30.012 
00:20	56.2	56.2	56.2	69	46.2	0	1	---	0.00	30.012 
00:25	56.2	56.2	56.2	67	45.4	0	0	---	0.00	30.007 
00:30	56.2	56.2	56.2	66	45.0	0	0	---	0.00	30.005 
00:35	56.0	56.0	56.0	66	44.8	0	0	---	0.00	30.006 
00:40	56.0	56.0	56.0	65	44.4	0	0	---	0.00	30.007 
00:45	56.0	56.0	56.0	64	44.0	0	0	---	0.00	30.009 
00:50	56.0	56.0	56.0	64	44.0	0	0	---	0.00	30.013 
00:55	56.0	56.0	56.0	64	44.0	0	0	---	0.00	30.014 
01:00	55.9	55.9	55.9	65	44.3	0	0	---	0.00	30.011 
01:05	55.6	55.6	55.6	65	44.0	0	0	---	0.00	30.008 
01:10	55.3	55.3	55.3	64	43.3	0	0	---	0.00	30.008 
01:15	55.1	55.1	55.1	64	43.1	0	0	---	0.00	30.009 
01:20	55.0	55.0	55.0	65	43.5	0	0	---	0.00	30.006 
01:25	54.7	54.7	54.7	67	44.0	0	0	---	0.00	30.007 
01:30	54.5	54.5	54.5	65	43.0	0	0	---	0.00	30.010 
01:35	54.2	54.2	54.2	67	43.5	0	0	---	0.00	30.009 
01:40	54.1	54.1	54.1	68	43.8	0	0	---	0.00	30.007 
01:45	53.9	53.9	53.9	70	44.3	0	0	---	0.00	30.008 
01:50	53.8	53.8	53.8	71	44.6	0	0	---	0.00	30.009 
01:55	53.6	53.6	53.6	72	44.8	0	0	---	0.00	30.009 
02:00	53.3	53.3	53.3	74	45.2	0	0	---	0.00	30.007 
02:05	53.2	53.2	53.2	75	45.5	0	0	---	0.00	30.005 
02:10	52.9	52.9	52.9	75	45.2	0	0	---	0.00	30.006 
02:15	52.8	52.8	52.8	77	45.8	0	0	---	0.00	30.007 
02:20	52.6	52.6	52.6	77	45.6	0	0	---	0.00	30.010 
02:25	52.5	52.5	52.5	77	45.5	0	0	---	0.00	30.014 
02:30	52.3	52.3	52.3	78	45.6	0	0	---	0.00	30.016 
02:35	52.3	52.3	52.3	79	46.0	0	0	---	0.00	30.018 
02:40	52.2	52.2	52.2	79	45.9	0	0	---	0.00	30.018 
02:45	52.0	52.0	52.0	80	46.0	0	0	---	0.00	30.016 
02:50	51.9	51.9	51.9	80	45.9	0	0	---	0.00	30.015 
02:55	51.7	51.7	51.7	80	45.7	0	0	---	0.00	30.013 
03:00	51.6	51.6	51.6	80	45.6	0	0	---	0.00	30.015 
03:05	51.4	51.4	51.4	80	45.4	0	0	---	0.00	30.016 
03:10	51.3	51.3	51.3	81	45.7	0	0	---	0.00	30.017 
03:15	51.1	51.1	51.1	82	45.8	0	0	---	0.00	30.018 
03:20	51.0	51.0	51.0	83	46.0	0	0	---	0.00	30.019 
03:25	50.8	50.8	50.8	82	45.5	0	0	---	0.00	30.019 
03:30	50.7	50.7	50.7	83	45.7	0	0	---	0.00	30.019 
03:35	50.5	50.5	50.5	84	45.8	0	0	---	0.00	30.018 
03:40	50.4	50.4	50.4	84	45.7	0	0	---	0.00	30.021 
03:45	50.4	50.4	50.4	85	46.1	0	0	---	0.00	30.022 
03:50	50.2	50.2	50.2	85	45.9	0	0	---	0.00	30.023 
03:55	50.2	50.2	50.2	86	46.2	0	0	---	0.00	30.023 
04:00	50.1	50.1	50.1	87	46.4	0	0	---	0.00	30.024 
04:05	50.1	50.1	50.1	87	46.4	0	0	---	0.00	30.025 
04:10	49.9	49.9	49.9	88	46.5	0	0	---	0.00	30.025 
04:15	49.8	49.8	49.8	88	46.4	0	0	---	0.00	30.023 
04:20	49.6	49.6	49.6	88	46.2	0	0	---	0.00	30.025 
04:25	49.6	49.6	49.6	89	46.5	0	0	---	0.00	30.028 
04:30	49.6	49.6	49.6	89	46.5	0	0	---	0.00	30.032 
04:35	49.5	49.5	49.5	89	46.4	0	0	---	0.00	30.033 
04:40	49.5	49.5	49.5	89	46.4	0	0	---	0.00	30.035 
04:45	49.4	49.4	49.4	89	46.3	0	0	---	0.00	30.038 
04:50	49.4	49.4	49.4	90	46.6	0	0	---	0.00	30.039 
04:55	49.2	49.2	49.2	90	46.4	0	0	---	0.00	30.038 
05:00	49.1	49.1	49.1	90	46.3	0	0	---	0.00	30.036 
05:05	49.1	49.1	49.1	90	46.3	0	0	---	0.00	30.038 
05:10	49.1	49.1	49.1	91	46.6	0	0	---	0.00	30.035 
05:15	48.9	48.9	48.9	91	46.4	0	0	---	0.00	30.033 
05:20	48.9	48.9	48.9	91	46.4	0	0	---	0.00	30.036 
05:25	48.9	48.9	48.9	92	46.7	0	0	---	0.00	30.041 
05:30	49.1	49.1	49.1	92	46.9	0	0	---	0.00	30.043 
05:35	49.1	49.1	49.1	92	46.9	0	0	---	0.00	30.047 
05:40	49.1	49.1	49.1	92	46.9	0	0	---	0.00	30.051 
05:45	49.1	49.1	49.1	92	46.9	0	0	---	0.00	30.056 
05:50	49.2	49.2	49.2	92	47.0	0	0	---	0.00	30.055 
05:55	49.4	49.4	49.4	93	47.5	0	0	---	0.00	30.055 
06:00	49.6	49.6	49.6	92	47.4	0	0	---	0.00	30.054 
06:05	49.9	49.9	49.9	93	48.0	0	0	---	0.00	30.054 
06:10	50.5	50.5	50.5	93	48.6	0	0	---	0.00	30.056 
06:15	51.0	51.0	51.0	93	49.0	0	0	---	0.00	30.060 
06:20	51.6	51.6	51.6	93	49.6	0	0	---	0.00	30.061 
06:25	52.9	52.9	52.9	90	50.0	0	0	---	0.00	30.059 
06:30	53.8	53.8	53.8	88	50.3	0	0	---	0.00	30.055 
06:35	54.7	54.7	54.7	87	50.9	0	0	---	0.00	30.057 
06:40	55.7	55.7	55.7	83	50.6	0	0	---	0.00	30.065 
06:45	57.2	57.2	57.2	74	49.0	0	1	135	0.00	30.060 
06:50	58.9	58.9	58.9	70	49.1	0	2	135	0.00	30.059 
06:55	60.1	60.1	60.1	65	48.3	0	1	135	0.00	30.063 
07:00	61.5	61.5	61.5	64	49.2	0	1	135	0.00	30.064 
07:05	62.6	62.6	62.6	60	48.5	0	1	135	0.00	30.066 
07:10	63.2	63.2	63.2	59	48.6	1	2	135	0.00	30.063 
07:15	63.5	63.5	63.5	58	48.5	0	2	135	0.00	30.057 
07:20	63.9	63.9	63.9	58	48.8	1	2	135	0.00	30.055 
07:25	64.2	64.2	64.2	57	48.6	0	2	135	0.00	30.056 
07:30	64.8	64.8	64.8	56	48.7	0	2	135	0.00	30.056 
07:35	65.6	65.6	65.6	53	48.0	0	2	135	0.00	30.059 
07:40	66.3	66.3	66.3	52	48.1	0	1	135	0.00	30.061 
07:45	66.9	66.9	66.9	50	47.6	0	2	135	0.00	30.061 
07:50	67.1	67.1	67.1	51	48.4	1	4	112	0.00	30.060 
07:55	67.3	67.3	67.3	53	49.6	1	2	112	0.00	30.067 
08:00	67.4	67.4	67.4	49	47.6	1	4	135	0.00	30.062 
08:05	67.4	67.4	67.4	51	48.6	1	4	112	0.00	30.066 
08:10	67.9	67.9	67.9	50	48.6	1	3	112	0.00	30.065 
08:15	68.3	68.3	68.3	49	48.4	1	3	68	0.00	30.066 
08:20	68.8	68.8	68.8	48	48.3	1	3	90	0.00	30.065 
08:25	68.9	68.9	68.9	46	47.3	2	4	90	0.00	30.063 
08:30	69.1	69.1	69.1	46	47.4	1	3	112	0.00	30.060 
08:35	69.4	69.4	69.4	44	46.5	1	5	90	0.00	30.060 
08:40	69.9	69.9	69.9	46	48.2	1	4	112	0.00	30.061 
08:45	70.6	70.6	70.6	44	47.6	1	3	112	0.00	30.063 
08:50	70.9	70.9	70.9	43	47.3	1	4	112	0.00	30.059 
08:55	71.1	71.1	71.1	46	49.3	2	4	90	0.00	30.057 
09:00	70.9	70.9	70.9	43	47.3	2	5	90	0.00	30.059 
09:05	71.1	71.1	71.1	43	47.5	1	3	90	0.00	30.062 
09:10	71.3	71.3	71.3	43	47.6	1	4	112	0.00	30.061 
09:15	71.1	71.1	71.1	43	47.5	2	4	112	0.00	30.063 
09:20	70.9	70.9	70.9	42	46.6	1	4	112	0.00	30.062 
09:25	71.5	71.5	71.5	42	47.2	1	4	112	0.00	30.064 
09:30	71.6	71.6	71.6	41	46.6	1	4	90	0.00	30.065 
09:35	71.6	71.6	71.6	42	47.3	2	5	90	0.00	30.064 
09:40	71.6	71.6	71.6	40	46.0	1	4	135	0.00	30.065 
09:45	72.0	72.0	72.0	41	47.0	2	6	135	0.00	30.065 
09:50	72.0	72.0	72.0	42	47.6	2	3	90	0.00	30.065 
09:55	72.1	72.1	72.1	41	47.1	3	6	90	0.00	30.065 
10:00	72.8	72.8	72.8	44	49.6	1	4	112	0.00	30.063 
10:05	73.2	73.2	73.2	40	47.4	3	6	112	0.00	30.067 
10:10	73.7	73.7	73.7	39	47.2	1	3	112	0.00	30.066 
10:15	73.9	73.9	73.9	39	47.4	2	4	112	0.00	30.070 
10:20	73.9	73.9	73.9	40	48.0	2	5	90	0.00	30.072 
10:25	74.0	74.0	74.0	39	47.5	1	4	90	0.00	30.068 
10:30	74.6	74.6	74.6	41	49.3	1	4	112	0.00	30.066 
10:35	74.9	74.9	74.9	36	46.1	2	6	90	0.00	30.067 
10:40	74.6	74.6	74.6	40	48.7	2	5	112	0.00	30.065 
10:45	74.6	74.6	74.6	36	45.9	1	3	112	0.00	30.063 
10:50	75.1	75.1	77.3	36	46.3	1	4	90	0.00	30.062 
10:55	75.3	75.3	77.4	36	46.5	1	6	112	0.00	30.065 
11:00	75.6	75.6	77.7	40	49.6	1	5	68	0.00	30.062 
11:05	75.6	75.6	77.6	38	48.2	1	3	90	0.00	30.065 
11:10	75.6	75.6	77.6	38	48.2	2	6	90	0.00	30.065 
11:15	75.8	75.8	77.7	38	48.4	1	4	90	0.00	30.065 
11:20	76.0	76.0	77.6	36	47.1	2	5	112	0.00	30.065 
11:25	75.6	75.6	77.6	37	47.5	1	4	112	0.00	30.066 
11:30	75.4	75.4	77.5	37	47.3	1	4	90	0.00	30.065 
11:35	76.1	76.1	77.9	41	50.7	1	3	90	0.00	30.063 
11:40	76.3	76.3	77.7	35	46.6	2	5	90	0.00	30.063 
11:45	76.7	76.7	77.9	35	47.0	2	5	90	0.00	30.063 
11:50	76.7	76.7	78.1	39	49.9	2	5	90	0.00	30.063 
11:55	76.3	76.3	77.9	40	50.2	1	9	90	0.00	30.063 
12:00	76.5	76.5	78.0	40	50.4	2	7	90	0.00	30.063 
12:05	76.3	76.3	77.7	36	47.4	2	6	90	0.00	30.066 
12:10	76.3	76.3	77.6	34	45.8	1	4	90	0.00	30.065 
12:15	76.5	76.5	77.8	35	46.8	2	5	90	0.00	30.064 
12:20	77.0	77.0	77.9	33	45.7	2	7	90	0.00	30.064 
12:25	77.2	77.2	78.0	34	46.6	2	5	135	0.00	30.062 
12:30	77.6	77.6	78.4	37	49.2	1	4	112	0.00	30.063 
12:35	77.6	77.6	78.3	36	48.5	3	6	112	0.00	30.061 
12:40	77.0	77.0	77.9	34	46.5	2	6	112	0.00	30.059 
12:45	76.7	76.7	77.8	34	46.2	2	4	112	0.00	30.052 
12:50	76.5	76.5	77.9	38	49.0	3	5	112	0.00	30.053 
12:55	76.3	76.3	77.9	39	49.5	2	5	90	0.00	30.052 
13:00	76.8	76.8	78.0	37	48.5	2	4	112	0.00	30.049 
13:05	77.2	77.2	78.2	37	48.9	1	5	135	0.00	30.049 
13:10	77.2	77.2	78.2	37	48.9	2	5	90	0.00	30.051 
13:15	77.4	77.4	78.3	38	49.8	1	3	90	0.00	30.049 
13:20	77.2	77.2	78.1	36	48.2	3	9	90	0.00	30.050 
13:25	76.8	76.8	78.0	38	49.2	3	4	112	0.00	30.050 
13:30	77.0	77.0	78.0	35	47.2	2	5	112	0.00	30.047 
13:35	77.2	77.2	78.2	38	49.6	3	7	90	0.00	30.045 
13:40	77.4	77.4	78.3	37	49.1	2	6	90	0.00	30.048 
13:45	77.0	77.0	78.0	35	47.2	2	5	90	0.00	30.048 
13:50	77.0	77.0	78.1	37	48.7	2	4	68	0.00	30.048 
13:55	77.4	77.4	78.1	35	47.6	1	4	68	0.00	30.048 
14:00	77.7	77.7	78.3	36	48.6	1	4	112	0.00	30.047 
14:05	77.9	77.9	78.3	33	46.5	2	7	90	0.00	30.048 
14:10	78.1	78.1	78.2	31	45.0	1	3	112	0.00	30.048 
14:15	78.1	78.1	78.6	37	49.7	2	5	112	0.00	30.049 
14:20	78.1	78.1	78.4	33	46.6	2	4	112	0.00	30.050 
14:25	78.3	78.3	78.6	36	49.1	1	4	90	0.00	30.052 
14:30	78.1	78.1	78.2	31	45.0	2	5	90	0.00	30.050 
14:35	78.5	78.5	78.6	33	47.0	1	3	90	0.00	30.051 
14:40	78.3	78.3	78.3	31	45.2	2	5	90	0.00	30.055 
14:45	77.9	77.9	78.1	31	44.8	2	5	112	0.00	30.057 
14:50	77.7	77.7	78.0	31	44.6	1	3	112	0.00	30.056 
14:55	77.7	77.7	78.2	33	46.3	1	3	112	0.00	30.055 
15:00	77.9	77.9	78.4	36	48.8	0	1	112	0.00	30.051 
15:05	78.3	78.3	78.6	35	48.4	1	4	112	0.00	30.053 
15:10	78.3	78.3	78.5	34	47.6	2	4	112	0.00	30.055 
15:15	78.1	78.1	78.5	35	48.2	1	2	112	0.00	30.058 
15:20	78.1	78.1	78.5	35	48.2	1	4	112	0.00	30.062 
15:25	77.9	77.9	78.3	33	46.5	0	3	112	0.00	30.062 
15:30	78.1	78.1	78.3	32	45.8	0	2	112	0.00	30.059 
15:35	78.3	78.3	78.3	31	45.2	0	1	112	0.00	30.058 
15:40	78.3	78.3	78.5	34	47.6	0	3	112	0.00	30.056 
15:45	78.5	78.5	78.6	33	47.0	1	4	112	0.00	30.053 
15:50	78.5	78.5	78.6	33	47.0	0	2	112	0.00	30.052 
15:55	78.6	78.6	78.4	30	44.6	1	3	112	0.00	30.052 
16:00	78.5	78.5	78.4	31	45.3	1	4	112	0.00	30.053 
16:05	78.3	78.3	78.2	29	43.4	1	3	90	0.00	30.053 
16:10	78.5	78.5	78.6	34	47.8	1	4	90	0.00	30.052 
16:15	79.0	79.0	78.7	31	45.8	0	1	90	0.00	30.052 
16:20	79.4	79.4	79.1	34	48.6	0	1	90	0.00	30.051 
16:25	79.2	79.2	78.9	32	46.8	0	1	90	0.00	30.051 
16:30	78.8	78.8	78.5	30	44.7	1	3	135	0.00	30.050 
16:35	78.5	78.5	78.5	32	46.2	0	1	135	0.00	30.048 
16:40	78.5	78.5	78.5	32	46.2	0	2	135	0.00	30.047 
16:45	78.6	78.6	78.4	30	44.6	1	2	135	0.00	30.050 
16:50	78.8	78.8	78.6	32	46.4	0	1	135	0.00	30.050 
16:55	79.0	79.0	78.7	31	45.8	0	1	135	0.00	30.049 
17:00	79.0	79.0	78.8	33	47.4	0	1	135	0.00	30.049 
17:05	78.8	78.8	78.5	30	44.7	0	1	135	0.00	30.047 
17:10	78.8	78.8	78.5	30	44.7	0	1	135	0.00	30.042 
17:15	78.6	78.6	78.5	32	46.3	0	1	135	0.00	30.041 
17:20	78.5	78.5	78.3	29	43.6	0	1	135	0.00	30.039 
17:25	78.6	78.6	78.5	31	45.4	0	2	135	0.00	30.037 
17:30	78.8	78.8	78.8	35	48.8	0	2	135	0.00	30.034 
17:35	78.8	78.8	78.6	32	46.4	1	2	135	0.00	30.035 
17:40	78.8	78.8	78.8	34	48.0	0	2	135	0.00	30.036 
17:45	78.5	78.5	78.6	34	47.8	0	2	135	0.00	30.035 
17:50	78.3	78.3	78.6	36	49.1	0	1	135	0.00	30.036 
17:55	78.1	78.1	78.6	37	49.7	0	0	---	0.00	30.035 
18:00	77.9	77.9	78.5	37	49.5	0	0	---	0.00	30.034 
18:05	77.7	77.7	78.3	35	47.8	0	2	135	0.00	30.023 
18:10	77.9	77.9	78.4	35	48.0	0	2	135	0.00	30.022 
18:15	77.6	77.6	78.2	34	47.0	0	1	135	0.00	30.024 
18:20	77.4	77.4	78.1	34	46.8	0	1	135	0.00	30.024 
18:25	77.2	77.2	78.0	34	46.6	0	0	---	0.00	30.021 
18:30	77.2	77.2	78.0	34	46.6	0	0	---	0.00	30.021 
18:35	76.8	76.8	77.9	35	47.1	0	0	---	0.00	30.022 
18:40	76.7	76.7	77.9	35	47.0	0	2	135	0.00	30.023 
18:45	76.3	76.3	77.7	36	47.4	0	3	135	0.00	30.024 
18:50	76.1	76.1	77.7	36	47.2	0	1	135	0.00	30.025 
18:55	75.8	75.8	77.7	38	48.4	0	0	---	0.00	30.024 
19:00	75.6	75.6	77.6	39	48.9	0	1	135	0.00	30.024 
19:05	75.3	75.3	77.6	40	49.3	0	0	---	0.00	30.021 
19:10	75.1	75.1	77.6	42	50.4	0	1	135	0.00	30.016 
19:15	74.7	74.7	74.7	41	49.4	0	0	---	0.00	30.020 
19:20	74.6	74.6	74.6	42	50.0	0	0	---	0.00	30.021 
19:25	74.0	74.0	74.0	43	50.1	0	0	---	0.00	30.020 
19:30	73.9	73.9	73.9	43	50.0	0	1	135	0.00	30.018 
19:35	73.5	73.5	73.5	44	50.2	0	0	---	0.00	30.019 
19:40	73.2	73.2	73.2	45	50.6	0	0	---	0.00	30.017 
19:45	72.8	72.8	72.8	45	50.2	0	0	---	0.00	30.014 
19:50	72.3	72.3	72.3	46	50.3	0	0	---	0.00	30.016 
19:55	72.0	72.0	72.0	47	50.7	0	0	---	0.00	30.022 
20:00	71.5	71.5	71.5	48	50.8	0	0	---	0.00	30.017 
20:05	71.1	71.1	71.1	48	50.4	0	0	---	0.00	30.014 
20:10	70.8	70.8	70.8	48	50.1	0	0	---	0.00	30.016 
20:15	70.4	70.4	70.4	49	50.3	0	0	---	0.00	30.020 
20:20	70.1	70.1	70.1	49	50.0	0	0	---	0.00	30.021 
20:25	69.9	69.9	69.9	50	50.4	0	0	---	0.00	30.020 
20:30	69.6	69.6	69.6	51	50.7	0	0	---	0.00	30.021 
20:35	69.3	69.3	69.3	52	50.9	0	0	---	0.00	30.020 
20:40	69.1	69.1	69.1	54	51.7	0	0	---	0.00	30.018 
20:45	68.8	68.8	68.8	53	51.0	0	0	---	0.00	30.020 
20:50	68.4	68.4	68.4	54	51.1	0	0	---	0.00	30.020 
20:55	68.1	68.1	68.1	54	50.8	0	0	---	0.00	30.021 
21:00	67.9	67.9	67.9	56	51.6	0	0	---	0.00	30.024 
21:05	67.6	67.6	67.6	56	51.3	0	0	---	0.00	30.024 
21:10	67.3	67.3	67.3	57	51.5	0	0	---	0.00	30.025 
21:15	66.9	66.9	66.9	57	51.2	0	0	---	0.00	30.025 
21:20	66.8	66.8	66.8	58	51.5	0	0	---	0.00	30.024 
21:25	66.4	66.4	66.4	59	51.6	0	0	---	0.00	30.026 
21:30	66.1	66.1	66.1	59	51.3	0	0	---	0.00	30.026 
21:35	66.0	66.0	66.0	60	51.7	0	0	---	0.00	30.026 
21:40	65.8	65.8	65.8	60	51.5	0	0	---	0.00	30.027 
21:45	65.6	65.6	65.6	60	51.3	0	0	---	0.00	30.028 
21:50	65.6	65.6	65.6	61	51.8	0	0	---	0.00	30.031 
21:55	65.8	65.8	65.8	61	52.0	0	0	---	0.00	30.035 
22:00	65.8	65.8	65.8	62	52.4	0	0	---	0.00	30.036 
22:05	65.6	65.6	65.6	61	51.8	0	0	---	0.00	30.033 
22:10	65.5	65.5	65.5	62	52.1	0	0	---	0.00	30.034 
22:15	65.2	65.2	65.2	62	51.8	0	0	---	0.00	30.034 
22:20	65.0	65.0	65.0	62	51.7	0	0	---	0.00	30.034 
22:25	64.7	64.7	64.7	63	51.8	0	0	---	0.00	30.035 
22:30	64.7	64.7	64.7	63	51.8	0	0	---	0.00	30.039 
22:35	64.7	64.7	64.7	64	52.2	0	0	---	0.00	30.039 
22:40	64.5	64.5	64.5	64	52.0	0	0	---	0.00	30.040 
22:45	64.3	64.3	64.3	65	52.3	0	0	---	0.00	30.040 
22:50	64.0	64.0	64.0	64	51.6	0	0	---	0.00	30.041 
22:55	63.9	63.9	63.9	65	51.9	0	0	---	0.00	30.042 
23:00	63.7	63.7	63.7	65	51.7	0	0	---	0.00	30.042 
23:05	63.4	63.4	63.4	66	51.8	0	0	---	0.00	30.041 
23:10	63.4	63.4	63.4	66	51.8	0	1	135	0.00	30.041 
23:15	63.2	63.2	63.2	66	51.6	0	0	---	0.00	30.041 
23:20	63.2	63.2	63.2	66	51.6	0	0	---	0.00	30.041 
23:25	63.1	63.1	63.1	66	51.6	0	0	---	0.00	30.043 
23:30	63.1	63.1	63.1	66	51.6	0	0	---	0.00	30.047 
23:35	62.9	62.9	62.9	66	51.4	0	0	---	0.00	30.045 
23:40	62.7	62.7	62.7	67	51.6	0	0	---	0.00	30.043 
23:45	62.4	62.4	62.4	67	51.3	0	0	---	0.00	30.045 
23:50	62.3	62.3	62.3	67	51.2	0	0	---	0.00	30.045 
23:55	62.0	62.0	62.0	68	51.3	0	0	---	0.00	30.044 

CoCoRaHS
IN-AL-39
A2 Web Hosting
Creative Commons License
GoDaddy
Look for:

loaded 2017-10-17 18:26:27 • last modified 2010-11-18 10:43:29
Privacy PolicyDisclaimer
• wx.awcolley.com is powered by PmWiki v.2002016 •
• all content (unless otherwise noted) © 2017 A W Colley